sensor_id;sensor_type;location;lat;lon;timestamp;P1;durP1;ratioP1;P2;durP2;ratioP2
6739;SDS011;3407;49.882;10.920;2022-08-21T00:03:43;3.23;;;2.90;;
6739;SDS011;3407;49.882;10.920;2022-08-21T00:08:40;3.23;;;2.93;;
6739;SDS011;3407;49.882;10.920;2022-08-21T00:13:36;8.43;;;3.40;;
6739;SDS011;3407;49.882;10.920;2022-08-21T00:18:33;4.03;;;3.33;;
6739;SDS011;3407;49.882;10.920;2022-08-21T00:23:28;3.23;;;2.90;;
6739;SDS011;3407;49.882;10.920;2022-08-21T00:28:25;4.80;;;2.60;;
6739;SDS011;3407;49.882;10.920;2022-08-21T00:33:20;3.03;;;2.47;;
6739;SDS011;3407;49.882;10.920;2022-08-21T00:38:16;6.90;;;2.87;;
6739;SDS011;3407;49.882;10.920;2022-08-21T00:43:13;3.47;;;2.50;;
6739;SDS011;3407;49.882;10.920;2022-08-21T00:48:12;5.20;;;2.53;;
6739;SDS011;3407;49.882;10.920;2022-08-21T00:53:08;3.20;;;2.90;;
6739;SDS011;3407;49.882;10.920;2022-08-21T00:58:06;3.33;;;2.87;;
6739;SDS011;3407;49.882;10.920;2022-08-21T01:03:06;5.87;;;3.60;;
6739;SDS011;3407;49.882;10.920;2022-08-21T01:08:04;8.93;;;4.00;;
6739;SDS011;3407;49.882;10.920;2022-08-21T01:13:03;7.03;;;3.43;;
6739;SDS011;3407;49.882;10.920;2022-08-21T01:18:02;6.60;;;4.37;;
6739;SDS011;3407;49.882;10.920;2022-08-21T01:23:02;10.13;;;4.67;;
6739;SDS011;3407;49.882;10.920;2022-08-21T01:28:00;9.23;;;6.07;;
6739;SDS011;3407;49.882;10.920;2022-08-21T01:33:01;9.97;;;6.33;;
6739;SDS011;3407;49.882;10.920;2022-08-21T01:37:57;10.60;;;5.13;;
6739;SDS011;3407;49.882;10.920;2022-08-21T01:42:53;7.83;;;5.40;;
6739;SDS011;3407;49.882;10.920;2022-08-21T01:47:48;8.43;;;4.80;;
6739;SDS011;3407;49.882;10.920;2022-08-21T01:52:44;10.47;;;6.20;;
6739;SDS011;3407;49.882;10.920;2022-08-21T01:57:39;8.80;;;5.00;;
6739;SDS011;3407;49.882;10.920;2022-08-21T02:02:36;9.43;;;5.30;;
6739;SDS011;3407;49.882;10.920;2022-08-21T02:07:35;6.80;;;4.17;;
6739;SDS011;3407;49.882;10.920;2022-08-21T02:12:32;6.43;;;4.90;;
6739;SDS011;3407;49.882;10.920;2022-08-21T02:17:36;5.53;;;4.57;;
6739;SDS011;3407;49.882;10.920;2022-08-21T02:22:33;6.20;;;4.43;;
6739;SDS011;3407;49.882;10.920;2022-08-21T02:27:28;8.70;;;5.40;;
6739;SDS011;3407;49.882;10.920;2022-08-21T02:32:24;5.97;;;5.07;;
6739;SDS011;3407;49.882;10.920;2022-08-21T02:37:20;6.77;;;5.53;;
6739;SDS011;3407;49.882;10.920;2022-08-21T02:42:17;7.90;;;6.03;;
6739;SDS011;3407;49.882;10.920;2022-08-21T02:47:13;7.13;;;5.30;;
6739;SDS011;3407;49.882;10.920;2022-08-21T02:52:09;7.70;;;5.30;;
6739;SDS011;3407;49.882;10.920;2022-08-21T02:57:06;7.23;;;4.77;;
6739;SDS011;3407;49.882;10.920;2022-08-21T03:02:03;9.17;;;5.27;;
6739;SDS011;3407;49.882;10.920;2022-08-21T03:06:58;20.70;;;6.57;;
6739;SDS011;3407;49.882;10.920;2022-08-21T03:11:55;12.50;;;5.00;;
6739;SDS011;3407;49.882;10.920;2022-08-21T03:16:50;29.43;;;5.67;;
6739;SDS011;3407;49.882;10.920;2022-08-21T03:21:46;18.60;;;4.90;;
6739;SDS011;3407;49.882;10.920;2022-08-21T03:26:42;27.73;;;5.50;;
6739;SDS011;3407;49.882;10.920;2022-08-21T03:31:37;8.53;;;5.20;;
6739;SDS011;3407;49.882;10.920;2022-08-21T03:36:33;11.40;;;5.27;;
6739;SDS011;3407;49.882;10.920;2022-08-21T03:41:28;17.97;;;5.33;;
6739;SDS011;3407;49.882;10.920;2022-08-21T03:46:24;14.20;;;5.23;;
6739;SDS011;3407;49.882;10.920;2022-08-21T03:51:19;28.50;;;5.40;;
6739;SDS011;3407;49.882;10.920;2022-08-21T03:56:15;18.53;;;5.37;;
6739;SDS011;3407;49.882;10.920;2022-08-21T04:01:11;17.47;;;5.37;;
6739;SDS011;3407;49.882;10.920;2022-08-21T04:06:07;13.73;;;4.30;;
6739;SDS011;3407;49.882;10.920;2022-08-21T04:11:03;20.50;;;5.27;;
6739;SDS011;3407;49.882;10.920;2022-08-21T04:15:59;16.50;;;5.03;;
6739;SDS011;3407;49.882;10.920;2022-08-21T04:20:56;13.50;;;4.80;;
6739;SDS011;3407;49.882;10.920;2022-08-21T04:25:54;14.70;;;5.03;;
6739;SDS011;3407;49.882;10.920;2022-08-21T04:30:51;22.57;;;5.40;;
6739;SDS011;3407;49.882;10.920;2022-08-21T04:35:47;17.33;;;4.37;;
6739;SDS011;3407;49.882;10.920;2022-08-21T04:40:44;18.23;;;5.27;;
6739;SDS011;3407;49.882;10.920;2022-08-21T04:45:41;22.63;;;5.90;;
6739;SDS011;3407;49.882;10.920;2022-08-21T04:50:43;7.57;;;3.93;;
6739;SDS011;3407;49.882;10.920;2022-08-21T04:55:42;19.90;;;4.43;;
6739;SDS011;3407;49.882;10.920;2022-08-21T05:00:39;15.27;;;4.43;;
6739;SDS011;3407;49.882;10.920;2022-08-21T05:05:35;20.17;;;3.93;;
6739;SDS011;3407;49.882;10.920;2022-08-21T05:10:31;19.17;;;4.17;;
6739;SDS011;3407;49.882;10.920;2022-08-21T05:15:27;19.50;;;4.17;;
6739;SDS011;3407;49.882;10.920;2022-08-21T05:20:22;13.13;;;3.60;;
6739;SDS011;3407;49.882;10.920;2022-08-21T05:25:18;8.60;;;4.30;;
6739;SDS011;3407;49.882;10.920;2022-08-21T05:30:14;12.00;;;3.93;;
6739;SDS011;3407;49.882;10.920;2022-08-21T05:35:09;15.13;;;4.83;;
6739;SDS011;3407;49.882;10.920;2022-08-21T05:40:06;15.10;;;4.10;;
6739;SDS011;3407;49.882;10.920;2022-08-21T05:45:03;13.10;;;5.10;;
6739;SDS011;3407;49.882;10.920;2022-08-21T05:49:58;6.87;;;4.30;;
6739;SDS011;3407;49.882;10.920;2022-08-21T05:54:54;11.60;;;4.47;;
6739;SDS011;3407;49.882;10.920;2022-08-21T05:59:50;8.27;;;3.93;;
6739;SDS011;3407;49.882;10.920;2022-08-21T06:04:46;8.07;;;4.10;;
6739;SDS011;3407;49.882;10.920;2022-08-21T06:09:42;11.07;;;4.70;;
6739;SDS011;3407;49.882;10.920;2022-08-21T06:14:38;12.60;;;4.20;;
6739;SDS011;3407;49.882;10.920;2022-08-21T06:19:35;6.63;;;4.50;;
6739;SDS011;3407;49.882;10.920;2022-08-21T06:24:31;13.33;;;4.10;;
6739;SDS011;3407;49.882;10.920;2022-08-21T06:29:27;11.00;;;5.37;;
6739;SDS011;3407;49.882;10.920;2022-08-21T06:34:23;17.87;;;5.00;;
6739;SDS011;3407;49.882;10.920;2022-08-21T06:39:19;9.33;;;5.50;;
6739;SDS011;3407;49.882;10.920;2022-08-21T06:44:15;18.30;;;5.10;;
6739;SDS011;3407;49.882;10.920;2022-08-21T06:49:11;10.00;;;5.80;;
6739;SDS011;3407;49.882;10.920;2022-08-21T06:54:07;18.00;;;5.27;;
6739;SDS011;3407;49.882;10.920;2022-08-21T06:59:04;9.57;;;5.77;;
6739;SDS011;3407;49.882;10.920;2022-08-21T07:04:00;8.77;;;6.53;;
6739;SDS011;3407;49.882;10.920;2022-08-21T07:08:56;10.97;;;6.83;;
6739;SDS011;3407;49.882;10.920;2022-08-21T07:13:51;8.00;;;6.13;;
6739;SDS011;3407;49.882;10.920;2022-08-21T07:18:49;7.30;;;5.40;;
6739;SDS011;3407;49.882;10.920;2022-08-21T07:23:46;8.93;;;6.17;;
6739;SDS011;3407;49.882;10.920;2022-08-21T07:28:43;8.10;;;5.87;;
6739;SDS011;3407;49.882;10.920;2022-08-21T07:33:39;6.80;;;5.70;;
6739;SDS011;3407;49.882;10.920;2022-08-21T07:38:35;7.80;;;5.87;;
6739;SDS011;3407;49.882;10.920;2022-08-21T07:43:31;5.50;;;4.90;;
6739;SDS011;3407;49.882;10.920;2022-08-21T07:48:26;6.83;;;4.80;;
6739;SDS011;3407;49.882;10.920;2022-08-21T07:53:22;10.63;;;5.20;;
6739;SDS011;3407;49.882;10.920;2022-08-21T07:58:17;9.33;;;5.13;;
6739;SDS011;3407;49.882;10.920;2022-08-21T08:03:13;8.00;;;5.40;;
6739;SDS011;3407;49.882;10.920;2022-08-21T08:08:09;6.57;;;5.80;;
6739;SDS011;3407;49.882;10.920;2022-08-21T08:13:04;7.63;;;6.20;;
6739;SDS011;3407;49.882;10.920;2022-08-21T08:18:00;6.93;;;5.23;;
6739;SDS011;3407;49.882;10.920;2022-08-21T08:22:55;6.80;;;5.53;;
6739;SDS011;3407;49.882;10.920;2022-08-21T08:27:51;9.37;;;6.83;;
6739;SDS011;3407;49.882;10.920;2022-08-21T08:32:47;6.47;;;5.70;;
6739;SDS011;3407;49.882;10.920;2022-08-21T08:37:44;6.83;;;5.83;;
6739;SDS011;3407;49.882;10.920;2022-08-21T08:42:40;6.67;;;5.53;;
6739;SDS011;3407;49.882;10.920;2022-08-21T08:47:37;6.37;;;5.67;;
6739;SDS011;3407;49.882;10.920;2022-08-21T08:52:36;8.27;;;6.57;;
6739;SDS011;3407;49.882;10.920;2022-08-21T08:57:38;8.13;;;6.67;;
6739;SDS011;3407;49.882;10.920;2022-08-21T09:02:43;8.37;;;7.00;;
6739;SDS011;3407;49.882;10.920;2022-08-21T09:07:47;8.17;;;6.87;;
6739;SDS011;3407;49.882;10.920;2022-08-21T09:24:02;7.70;;;6.90;;
6739;SDS011;3407;49.882;10.920;2022-08-21T09:29:24;7.87;;;6.43;;
6739;SDS011;3407;49.882;10.920;2022-08-21T09:34:25;7.67;;;6.63;;
6739;SDS011;3407;49.882;10.920;2022-08-21T09:39:31;8.27;;;7.03;;
6739;SDS011;3407;49.882;10.920;2022-08-21T09:44:34;8.67;;;7.40;;
6739;SDS011;3407;49.882;10.920;2022-08-21T09:49:37;8.27;;;7.00;;
6739;SDS011;3407;49.882;10.920;2022-08-21T09:54:35;10.10;;;7.23;;
6739;SDS011;3407;49.882;10.920;2022-08-21T09:59:33;8.13;;;6.30;;
6739;SDS011;3407;49.882;10.920;2022-08-21T10:04:30;6.13;;;5.53;;
6739;SDS011;3407;49.882;10.920;2022-08-21T10:09:28;6.28;;;5.68;;
6739;SDS011;3407;49.882;10.920;2022-08-21T10:14:30;5.15;;;4.65;;
6739;SDS011;3407;49.882;10.920;2022-08-21T10:25:06;4.75;;;4.35;;
6739;SDS011;3407;49.882;10.920;2022-08-21T10:30:13;6.57;;;4.88;;
6739;SDS011;3407;49.882;10.920;2022-08-21T10:45:21;3.40;;;3.20;;
6739;SDS011;3407;49.882;10.920;2022-08-21T10:50:42;3.70;;;3.40;;
6739;SDS011;3407;49.882;10.920;2022-08-21T11:00:43;3.30;;;3.00;;
6739;SDS011;3407;49.882;10.920;2022-08-21T11:05:54;2.88;;;2.65;;
6739;SDS011;3407;49.882;10.920;2022-08-21T11:10:57;3.15;;;2.85;;
6739;SDS011;3407;49.882;10.920;2022-08-21T11:16:05;5.18;;;2.80;;
6739;SDS011;3407;49.882;10.920;2022-08-21T11:21:04;3.00;;;2.80;;
6739;SDS011;3407;49.882;10.920;2022-08-21T11:26:02;2.85;;;2.55;;
6739;SDS011;3407;49.882;10.920;2022-08-21T11:47:03;2.85;;;2.65;;
6739;SDS011;3407;49.882;10.920;2022-08-21T12:02:33;2.67;;;2.40;;
6739;SDS011;3407;49.882;10.920;2022-08-21T12:07:37;2.97;;;2.65;;
6739;SDS011;3407;49.882;10.920;2022-08-21T12:12:36;2.47;;;2.28;;
6739;SDS011;3407;49.882;10.920;2022-08-21T12:17:38;3.00;;;2.55;;
6739;SDS011;3407;49.882;10.920;2022-08-21T12:22:38;2.40;;;2.20;;
6739;SDS011;3407;49.882;10.920;2022-08-21T12:32:54;2.10;;;2.00;;
6739;SDS011;3407;49.882;10.920;2022-08-21T12:38:15;2.63;;;2.15;;
6739;SDS011;3407;49.882;10.920;2022-08-21T12:43:19;2.10;;;2.00;;
6739;SDS011;3407;49.882;10.920;2022-08-21T12:48:41;3.28;;;2.88;;
6739;SDS011;3407;49.882;10.920;2022-08-21T12:53:48;2.80;;;2.60;;
6739;SDS011;3407;49.882;10.920;2022-08-21T12:58:53;2.53;;;2.20;;
6739;SDS011;3407;49.882;10.920;2022-08-21T13:03:50;2.25;;;2.05;;
6739;SDS011;3407;49.882;10.920;2022-08-21T13:08:51;2.72;;;2.45;;
6739;SDS011;3407;49.882;10.920;2022-08-21T13:13:52;2.50;;;2.30;;
6739;SDS011;3407;49.882;10.920;2022-08-21T13:18:54;2.57;;;2.37;;
6739;SDS011;3407;49.882;10.920;2022-08-21T13:23:54;5.43;;;2.80;;
6739;SDS011;3407;49.882;10.920;2022-08-21T13:28:49;2.23;;;2.03;;
6739;SDS011;3407;49.882;10.920;2022-08-21T13:33:45;3.17;;;2.87;;
6739;SDS011;3407;49.882;10.920;2022-08-21T13:38:43;3.43;;;2.63;;
6739;SDS011;3407;49.882;10.920;2022-08-21T13:43:43;3.10;;;2.73;;
6739;SDS011;3407;49.882;10.920;2022-08-21T13:48:41;4.20;;;2.20;;
6739;SDS011;3407;49.882;10.920;2022-08-21T13:58:43;2.57;;;2.37;;
6739;SDS011;3407;49.882;10.920;2022-08-21T14:03:43;4.63;;;3.10;;
6739;SDS011;3407;49.882;10.920;2022-08-21T14:08:41;2.87;;;2.60;;
6739;SDS011;3407;49.882;10.920;2022-08-21T14:13:49;2.73;;;2.53;;
6739;SDS011;3407;49.882;10.920;2022-08-21T14:19:37;2.53;;;2.23;;
6739;SDS011;3407;49.882;10.920;2022-08-21T14:29:18;3.13;;;2.80;;
6739;SDS011;3407;49.882;10.920;2022-08-21T14:34:16;2.33;;;2.13;;
6739;SDS011;3407;49.882;10.920;2022-08-21T14:39:12;3.23;;;2.40;;
6739;SDS011;3407;49.882;10.920;2022-08-21T14:44:07;2.47;;;2.27;;
6739;SDS011;3407;49.882;10.920;2022-08-21T14:49:04;3.70;;;2.60;;
6739;SDS011;3407;49.882;10.920;2022-08-21T14:54:00;3.47;;;2.70;;
6739;SDS011;3407;49.882;10.920;2022-08-21T14:58:55;2.67;;;2.33;;
6739;SDS011;3407;49.882;10.920;2022-08-21T15:03:57;2.37;;;2.00;;
6739;SDS011;3407;49.882;10.920;2022-08-21T15:08:53;4.20;;;3.10;;
6739;SDS011;3407;49.882;10.920;2022-08-21T15:13:50;3.33;;;2.23;;
6739;SDS011;3407;49.882;10.920;2022-08-21T15:18:50;4.27;;;3.70;;
6739;SDS011;3407;49.882;10.920;2022-08-21T15:23:45;4.03;;;2.63;;
6739;SDS011;3407;49.882;10.920;2022-08-21T15:28:41;5.33;;;3.27;;
6739;SDS011;3407;49.882;10.920;2022-08-21T15:33:37;2.60;;;2.10;;
6739;SDS011;3407;49.882;10.920;2022-08-21T15:38:32;3.83;;;2.30;;
6739;SDS011;3407;49.882;10.920;2022-08-21T15:43:29;3.60;;;3.00;;
6739;SDS011;3407;49.882;10.920;2022-08-21T15:48:30;2.73;;;2.43;;
6739;SDS011;3407;49.882;10.920;2022-08-21T15:53:25;4.20;;;2.10;;
6739;SDS011;3407;49.882;10.920;2022-08-21T15:58:21;5.77;;;3.50;;
6739;SDS011;3407;49.882;10.920;2022-08-21T16:03:17;2.73;;;2.37;;
6739;SDS011;3407;49.882;10.920;2022-08-21T16:08:16;5.57;;;2.30;;
6739;SDS011;3407;49.882;10.920;2022-08-21T16:13:14;5.40;;;3.77;;
6739;SDS011;3407;49.882;10.920;2022-08-21T16:18:20;3.20;;;2.80;;
6739;SDS011;3407;49.882;10.920;2022-08-21T16:23:17;3.70;;;2.80;;
6739;SDS011;3407;49.882;10.920;2022-08-21T16:28:14;2.47;;;1.90;;
6739;SDS011;3407;49.882;10.920;2022-08-21T16:33:16;2.83;;;2.17;;
6739;SDS011;3407;49.882;10.920;2022-08-21T16:38:16;2.97;;;2.30;;
6739;SDS011;3407;49.882;10.920;2022-08-21T16:43:12;2.87;;;2.50;;
6739;SDS011;3407;49.882;10.920;2022-08-21T16:48:08;3.27;;;2.60;;
6739;SDS011;3407;49.882;10.920;2022-08-21T16:53:04;4.13;;;2.63;;
6739;SDS011;3407;49.882;10.920;2022-08-21T16:58:02;3.57;;;2.60;;
6739;SDS011;3407;49.882;10.920;2022-08-21T17:03:02;3.50;;;2.30;;
6739;SDS011;3407;49.882;10.920;2022-08-21T17:07:57;5.07;;;2.53;;
6739;SDS011;3407;49.882;10.920;2022-08-21T17:12:54;7.37;;;2.80;;
6739;SDS011;3407;49.882;10.920;2022-08-21T17:17:52;4.00;;;2.60;;
6739;SDS011;3407;49.882;10.920;2022-08-21T17:22:50;4.23;;;2.47;;
6739;SDS011;3407;49.882;10.920;2022-08-21T17:27:47;6.47;;;2.33;;
6739;SDS011;3407;49.882;10.920;2022-08-21T17:32:43;5.17;;;3.23;;
6739;SDS011;3407;49.882;10.920;2022-08-21T17:37:42;5.13;;;3.70;;
6739;SDS011;3407;49.882;10.920;2022-08-21T17:42:38;4.53;;;2.97;;
6739;SDS011;3407;49.882;10.920;2022-08-21T17:47:35;6.40;;;3.40;;
6739;SDS011;3407;49.882;10.920;2022-08-21T17:52:32;4.83;;;3.43;;
6739;SDS011;3407;49.882;10.920;2022-08-21T17:57:28;4.77;;;3.37;;
6739;SDS011;3407;49.882;10.920;2022-08-21T18:02:26;3.60;;;2.93;;
6739;SDS011;3407;49.882;10.920;2022-08-21T18:07:24;6.43;;;5.43;;
6739;SDS011;3407;49.882;10.920;2022-08-21T18:12:20;6.80;;;5.17;;
6739;SDS011;3407;49.882;10.920;2022-08-21T18:17:16;4.70;;;3.50;;
6739;SDS011;3407;49.882;10.920;2022-08-21T18:22:15;6.30;;;3.10;;
6739;SDS011;3407;49.882;10.920;2022-08-21T18:27:11;3.60;;;2.53;;
6739;SDS011;3407;49.882;10.920;2022-08-21T18:32:08;7.17;;;4.40;;
6739;SDS011;3407;49.882;10.920;2022-08-21T18:37:05;6.30;;;3.17;;
6739;SDS011;3407;49.882;10.920;2022-08-21T18:42:02;6.30;;;2.70;;
6739;SDS011;3407;49.882;10.920;2022-08-21T18:47:06;4.20;;;2.80;;
6739;SDS011;3407;49.882;10.920;2022-08-21T18:52:05;3.63;;;2.93;;
6739;SDS011;3407;49.882;10.920;2022-08-21T18:57:01;4.17;;;3.10;;
6739;SDS011;3407;49.882;10.920;2022-08-21T19:01:56;4.70;;;2.80;;
6739;SDS011;3407;49.882;10.920;2022-08-21T19:06:52;3.87;;;3.33;;
6739;SDS011;3407;49.882;10.920;2022-08-21T19:11:48;3.17;;;2.73;;
6739;SDS011;3407;49.882;10.920;2022-08-21T19:16:44;5.00;;;3.50;;
6739;SDS011;3407;49.882;10.920;2022-08-21T19:21:39;9.40;;;3.10;;
6739;SDS011;3407;49.882;10.920;2022-08-21T19:26:35;5.17;;;3.10;;
6739;SDS011;3407;49.882;10.920;2022-08-21T19:31:32;4.37;;;3.27;;
6739;SDS011;3407;49.882;10.920;2022-08-21T19:36:32;6.83;;;3.33;;
6739;SDS011;3407;49.882;10.920;2022-08-21T19:41:31;7.30;;;3.90;;
6739;SDS011;3407;49.882;10.920;2022-08-21T19:46:30;3.80;;;3.40;;
6739;SDS011;3407;49.882;10.920;2022-08-21T19:51:28;4.20;;;3.67;;
6739;SDS011;3407;49.882;10.920;2022-08-21T19:56:26;5.27;;;3.33;;
6739;SDS011;3407;49.882;10.920;2022-08-21T20:01:24;6.97;;;4.27;;
6739;SDS011;3407;49.882;10.920;2022-08-21T20:06:21;6.70;;;3.77;;
6739;SDS011;3407;49.882;10.920;2022-08-21T20:11:18;7.97;;;4.27;;
6739;SDS011;3407;49.882;10.920;2022-08-21T20:16:22;6.53;;;4.50;;
6739;SDS011;3407;49.882;10.920;2022-08-21T20:21:18;8.07;;;4.10;;
6739;SDS011;3407;49.882;10.920;2022-08-21T20:26:14;5.27;;;3.97;;
6739;SDS011;3407;49.882;10.920;2022-08-21T20:31:09;4.77;;;3.53;;
6739;SDS011;3407;49.882;10.920;2022-08-21T20:36:05;7.17;;;3.40;;
6739;SDS011;3407;49.882;10.920;2022-08-21T20:41:01;4.53;;;3.83;;
6739;SDS011;3407;49.882;10.920;2022-08-21T20:45:57;4.70;;;3.80;;
6739;SDS011;3407;49.882;10.920;2022-08-21T20:51:08;6.60;;;3.87;;
6739;SDS011;3407;49.882;10.920;2022-08-21T20:56:11;5.63;;;4.00;;
6739;SDS011;3407;49.882;10.920;2022-08-21T21:01:14;6.77;;;4.30;;
6739;SDS011;3407;49.882;10.920;2022-08-21T21:06:13;6.57;;;3.70;;
6739;SDS011;3407;49.882;10.920;2022-08-21T21:11:22;5.90;;;3.73;;
6739;SDS011;3407;49.882;10.920;2022-08-21T21:16:27;5.23;;;3.87;;
6739;SDS011;3407;49.882;10.920;2022-08-21T21:27:01;4.97;;;3.80;;
6739;SDS011;3407;49.882;10.920;2022-08-21T21:32:04;7.33;;;4.37;;
6739;SDS011;3407;49.882;10.920;2022-08-21T21:37:04;6.17;;;4.57;;
6739;SDS011;3407;49.882;10.920;2022-08-21T21:58:08;6.53;;;4.20;;
6739;SDS011;3407;49.882;10.920;2022-08-21T22:03:32;5.57;;;3.87;;
6739;SDS011;3407;49.882;10.920;2022-08-21T22:19:22;5.67;;;4.63;;
6739;SDS011;3407;49.882;10.920;2022-08-21T22:24:25;4.97;;;4.13;;
6739;SDS011;3407;49.882;10.920;2022-08-21T22:29:24;6.83;;;4.13;;
6739;SDS011;3407;49.882;10.920;2022-08-21T22:34:35;4.90;;;4.20;;
6739;SDS011;3407;49.882;10.920;2022-08-21T22:39:32;5.50;;;4.30;;
6739;SDS011;3407;49.882;10.920;2022-08-21T22:44:31;5.87;;;3.90;;
6739;SDS011;3407;49.882;10.920;2022-08-21T22:49:33;6.07;;;4.80;;
6739;SDS011;3407;49.882;10.920;2022-08-21T22:54:36;5.10;;;4.50;;
6739;SDS011;3407;49.882;10.920;2022-08-21T22:59:41;4.80;;;4.20;;
6739;SDS011;3407;49.882;10.920;2022-08-21T23:04:48;5.73;;;4.50;;
6739;SDS011;3407;49.882;10.920;2022-08-21T23:09:45;5.97;;;5.30;;
6739;SDS011;3407;49.882;10.920;2022-08-21T23:14:42;6.60;;;4.43;;
6739;SDS011;3407;49.882;10.920;2022-08-21T23:19:59;5.20;;;4.70;;
6739;SDS011;3407;49.882;10.920;2022-08-21T23:30:29;8.53;;;4.93;;
6739;SDS011;3407;49.882;10.920;2022-08-21T23:40:57;8.17;;;4.90;;
6739;SDS011;3407;49.882;10.920;2022-08-21T23:46:07;6.43;;;4.50;;
6739;SDS011;3407;49.882;10.920;2022-08-21T23:51:34;7.03;;;4.87;;
